M/T Goviken — 9HA2718 — position and weather

sailwx.info

Track history (hours):
 
Tides and Currents Weather Stations Pressure Air Temp Water Temp Dewpoint Dewpoint Depression Visibility Wind Speed Wind Dir Waves Ship Positions

M/T Goviken

Last reported at 2014-Dec-22 23:17 UTC. Time now 2014-Dec-23 00:10 UTC.
Position N 52°08' E 003°42'.

Length 88 m; draft 5.8 m.

Type: Ship (hazmat cat C). MMSI: 215389000.

Date/timePositionNaut miles runAvg speedWind from/ knotsBaromVisibWave heightAir tempDewpointWater temp
2014-Dec-22 23:17N 52°08' E 003°42'0 0.0
2014-Dec-22 22:26N 52°08' E 003°42'0 0.1
2014-Dec-22 21:32N 52°08' E 003°42'0 0.0
2014-Dec-22 20:14N 52°08' E 003°42'0 0.0
2014-Dec-22 19:23N 52°08' E 003°42'0 0.0
2014-Dec-22 15:14N 52°08' E 003°42'0 0.0
2014-Dec-22 13:14N 52°08' E 003°42'0 0.0
2014-Dec-22 07:20N 52°08' E 003°42'0 0.0
2014-Dec-22 00:18N 52°08' E 003°42'4 4.5
2014-Dec-21 23:26N 52°11' E 003°46'6 6.5
2014-Dec-21 22:33N 52°17' E 003°47'7 6.8
2014-Dec-21 21:33N 52°24' E 003°49'7 6.8
2014-Dec-21 20:32N 52°30' E 003°51'15 6.9
2014-Dec-21 18:23N 52°45' E 003°56'44 5.5
2014-Dec-21 10:29N 53°23' E 004°32'8 8.2
2014-Dec-21 09:31N 53°30' E 004°36'26 8.4
2014-Dec-21 06:23N 53°55' E 004°51'7 8.7
2014-Dec-21 05:33N 54°02' E 004°55'8 8.5
2014-Dec-21 04:33N 54°09' E 005°02'9 8.5
2014-Dec-21 03:33N 54°16' E 005°11'93 8.1
2014-Dec-20 16:09N 55°47' E 005°40'5 8.3
2014-Dec-20 15:30N 55°52' E 005°40'177 7.1
2014-Dec-19 14:33N 58°49' E 005°06'6 6.2
2014-Dec-19 13:33N 58°55' E 005°07'6 5.6
2014-Dec-19 12:33N 59°00' E 005°10'5 5.0
2014-Dec-19 11:33N 59°04' E 005°16'6 5.6
2014-Dec-19 10:33N 59°07' E 005°25'7 7.4
2014-Dec-19 09:33N 59°14' E 005°31'3 0.2
2014-Dec-18 17:06N 59°16' E 005°30'3 0.7
2014-Dec-18 13:26N 59°14' E 005°31'0 0.0
2014-Dec-18 12:26N 59°14' E 005°31'0 0.0
2014-Dec-18 05:26N 59°14' E 005°31'0 0.0
2014-Dec-18 03:08N 59°14' E 005°31'0 0.0
2014-Dec-18 02:14N 59°14' E 005°31'0 0.0
2014-Dec-18 01:17N 59°14' E 005°31'0 0.0
2014-Dec-17 21:11N 59°14' E 005°31'0 0.0
2014-Dec-17 20:32N 59°14' E 005°31'0 0.0
2014-Dec-17 11:32N 59°14' E 005°30'0 0.0
2014-Dec-17 09:08N 59°14' E 005°30'0 0.0
2014-Dec-17 06:29N 59°14' E 005°30'0 0.0
2014-Dec-17 05:29N 59°14' E 005°30'0 0.0
2014-Dec-17 04:32N 59°14' E 005°30'0 0.0
2014-Dec-17 03:11N 59°14' E 005°31'0 0.0
2014-Dec-17 01:32N 59°14' E 005°31'0 0.0
2014-Dec-17 00:11N 59°14' E 005°31'0 0.0
2014-Dec-16 23:14N 59°14' E 005°31'0 0.0
2014-Dec-16 22:29N 59°14' E 005°31'0 0.0
2014-Dec-16 20:17N 59°14' E 005°31'0 0.0
2014-Dec-16 19:17N 59°14' E 005°31'0 0.0
2014-Dec-16 18:26N 59°14' E 005°31'0 0.0
2014-Dec-16 16:29N 59°14' E 005°31'0 0.0
2014-Dec-16 15:14N 59°14' E 005°31'0 0.0
2014-Dec-16 14:23N 59°14' E 005°31'0 0.0
2014-Dec-16 13:32N 59°14' E 005°31'0 0.0
2014-Dec-16 12:32N 59°14' E 005°31'0 0.1
2014-Dec-16 10:32N 59°14' E 005°31'0 0.0
2014-Dec-16 09:08N 59°14' E 005°31'0 0.0
2014-Dec-15 23:05N 59°14' E 005°31'0 0.0
2014-Dec-15 22:23N 59°14' E 005°31'0 0.1
2014-Dec-15 21:23N 59°14' E 005°31'0 0.0
2014-Dec-15 16:11N 59°14' E 005°31'0 0.0
2014-Dec-15 15:26N 59°14' E 005°31'0 0.0
2014-Dec-15 14:11N 59°14' E 005°31'0 0.0
2014-Dec-15 10:26N 59°14' E 005°31'0 0.0
2014-Dec-15 09:26N 59°14' E 005°31'0 0.0
2014-Dec-15 06:20N 59°14' E 005°31'0 0.0
2014-Dec-15 04:11N 59°14' E 005°31'0 0.1
2014-Dec-15 03:29N 59°14' E 005°31'0 0.0
2014-Dec-15 02:29N 59°14' E 005°31'0 0.0
2014-Dec-15 01:29N 59°14' E 005°31'0 0.0
2014-Dec-15 00:32N 59°14' E 005°31'0 0.0
2014-Dec-14 23:29N 59°14' E 005°31'0 0.0
2014-Dec-14 21:23N 59°14' E 005°31'0 0.0
2014-Dec-14 17:26N 59°14' E 005°31'0 0.1
2014-Dec-14 16:32N 59°14' E 005°31'0 0.0
2014-Dec-14 15:11N 59°14' E 005°31'0 0.0
2014-Dec-14 14:26N 59°14' E 005°31'0 0.0
2014-Dec-14 13:26N 59°14' E 005°31'0 0.0
2014-Dec-14 11:23N 59°14' E 005°31'0 0.0
2014-Dec-14 10:32N 59°14' E 005°31'0 0.0
2014-Dec-14 08:23N 59°14' E 005°31'0 0.0
2014-Dec-14 06:17N 59°14' E 005°31'0 0.1
2014-Dec-14 05:05N 59°14' E 005°30'0 0.0
2014-Dec-14 03:26N 59°14' E 005°30'0 0.0
2014-Dec-14 01:09N 59°14' E 005°31'1 1.3
2014-Dec-14 00:25N 59°14' E 005°32'0 0.0
2014-Dec-13 23:31N 59°14' E 005°32'0 0.1
2014-Dec-13 22:13N 59°14' E 005°32'0 0.0
2014-Dec-13 21:31N 59°14' E 005°32'0 0.0
2014-Dec-13 20:31N 59°14' E 005°32'0 0.0
2014-Dec-13 19:31N 59°14' E 005°32'0 0.0
2014-Dec-13 18:31N 59°14' E 005°32'0 0.0
2014-Dec-13 17:31N 59°14' E 005°32'0 0.1
2014-Dec-13 16:31N 59°14' E 005°32'0 0.0
2014-Dec-13 14:04N 59°14' E 005°32'0 0.0
2014-Dec-13 13:04N 59°14' E 005°32'0 0.0
2014-Dec-13 12:31N 59°14' E 005°32'0 0.0
2014-Dec-13 11:31N 59°14' E 005°32'0 0.0
2014-Dec-13 10:25N 59°14' E 005°32'0 0.0
2014-Dec-13 09:31N 59°14' E 005°32'0 0.0
2014-Dec-13 08:31N 59°14' E 005°32'0 0.0
2014-Dec-13 07:22N 59°14' E 005°32'0 0.0
2014-Dec-13 05:31N 59°14' E 005°32'0 0.1
2014-Dec-13 04:31N 59°14' E 005°32'0 0.3
2014-Dec-13 03:33N 59°14' E 005°32'0 0.1
2014-Dec-13 02:24N 59°14' E 005°32'0 0.1
2014-Dec-13 01:33N 59°14' E 005°32'0 0.0
2014-Dec-13 00:12N 59°14' E 005°32'0 0.1
2014-Dec-12 23:33N 59°14' E 005°32'  
Track history (hours):
 
Tides and Currents Weather Stations Pressure Air Temp Water Temp Dewpoint Dewpoint Depression Visibility Wind Speed Wind Dir Waves Ship Positions

M/T Goviken

Last reported at 2014-Dec-22 23:17 UTC. Time now 2014-Dec-23 00:10 UTC.
Position N 52°08' E 003°42'.

Length 88 m; draft 5.8 m.

Type: Ship (hazmat cat C). MMSI: 215389000.

Date/timePositionNaut miles runAvg speedWind from/ knotsBaromVisibWave heightAir tempDewpointWater temp
2014-Dec-22 23:17N 52°08' E 003°42'0 0.0
2014-Dec-22 22:26N 52°08' E 003°42'0 0.1
2014-Dec-22 21:32N 52°08' E 003°42'0 0.0
2014-Dec-22 20:14N 52°08' E 003°42'0 0.0
2014-Dec-22 19:23N 52°08' E 003°42'0 0.0
2014-Dec-22 15:14N 52°08' E 003°42'0 0.0
2014-Dec-22 13:14N 52°08' E 003°42'0 0.0
2014-Dec-22 07:20N 52°08' E 003°42'0 0.0
2014-Dec-22 00:18N 52°08' E 003°42'4 4.5
2014-Dec-21 23:26N 52°11' E 003°46'6 6.5
2014-Dec-21 22:33N 52°17' E 003°47'7 6.8
2014-Dec-21 21:33N 52°24' E 003°49'7 6.8
2014-Dec-21 20:32N 52°30' E 003°51'15 6.9
2014-Dec-21 18:23N 52°45' E 003°56'44 5.5
2014-Dec-21 10:29N 53°23' E 004°32'8 8.2
2014-Dec-21 09:31N 53°30' E 004°36'26 8.4
2014-Dec-21 06:23N 53°55' E 004°51'7 8.7
2014-Dec-21 05:33N 54°02' E 004°55'8 8.5
2014-Dec-21 04:33N 54°09' E 005°02'9 8.5
2014-Dec-21 03:33N 54°16' E 005°11'93 8.1
2014-Dec-20 16:09N 55°47' E 005°40'5 8.3
2014-Dec-20 15:30N 55°52' E 005°40'177 7.1
2014-Dec-19 14:33N 58°49' E 005°06'6 6.2
2014-Dec-19 13:33N 58°55' E 005°07'6 5.6
2014-Dec-19 12:33N 59°00' E 005°10'5 5.0
2014-Dec-19 11:33N 59°04' E 005°16'6 5.6
2014-Dec-19 10:33N 59°07' E 005°25'7 7.4
2014-Dec-19 09:33N 59°14' E 005°31'3 0.2
2014-Dec-18 17:06N 59°16' E 005°30'3 0.7
2014-Dec-18 13:26N 59°14' E 005°31'0 0.0
2014-Dec-18 12:26N 59°14' E 005°31'0 0.0
2014-Dec-18 05:26N 59°14' E 005°31'0 0.0
2014-Dec-18 03:08N 59°14' E 005°31'0 0.0
2014-Dec-18 02:14N 59°14' E 005°31'0 0.0
2014-Dec-18 01:17N 59°14' E 005°31'0 0.0
2014-Dec-17 21:11N 59°14' E 005°31'0 0.0
2014-Dec-17 20:32N 59°14' E 005°31'0 0.0
2014-Dec-17 11:32N 59°14' E 005°30'0 0.0
2014-Dec-17 09:08N 59°14' E 005°30'0 0.0
2014-Dec-17 06:29N 59°14' E 005°30'0 0.0
2014-Dec-17 05:29N 59°14' E 005°30'0 0.0
2014-Dec-17 04:32N 59°14' E 005°30'0 0.0
2014-Dec-17 03:11N 59°14' E 005°31'0 0.0
2014-Dec-17 01:32N 59°14' E 005°31'0 0.0
2014-Dec-17 00:11N 59°14' E 005°31'0 0.0
2014-Dec-16 23:14N 59°14' E 005°31'0 0.0
2014-Dec-16 22:29N 59°14' E 005°31'0 0.0
2014-Dec-16 20:17N 59°14' E 005°31'0 0.0
2014-Dec-16 19:17N 59°14' E 005°31'0 0.0
2014-Dec-16 18:26N 59°14' E 005°31'0 0.0
2014-Dec-16 16:29N 59°14' E 005°31'0 0.0
2014-Dec-16 15:14N 59°14' E 005°31'0 0.0
2014-Dec-16 14:23N 59°14' E 005°31'0 0.0
2014-Dec-16 13:32N 59°14' E 005°31'0 0.0
2014-Dec-16 12:32N 59°14' E 005°31'0 0.1
2014-Dec-16 10:32N 59°14' E 005°31'0 0.0
2014-Dec-16 09:08N 59°14' E 005°31'0 0.0
2014-Dec-15 23:05N 59°14' E 005°31'0 0.0
2014-Dec-15 22:23N 59°14' E 005°31'0 0.1
2014-Dec-15 21:23N 59°14' E 005°31'0 0.0
2014-Dec-15 16:11N 59°14' E 005°31'0 0.0
2014-Dec-15 15:26N 59°14' E 005°31'0 0.0
2014-Dec-15 14:11N 59°14' E 005°31'0 0.0
2014-Dec-15 10:26N 59°14' E 005°31'0 0.0
2014-Dec-15 09:26N 59°14' E 005°31'0 0.0
2014-Dec-15 06:20N 59°14' E 005°31'0 0.0
2014-Dec-15 04:11N 59°14' E 005°31'0 0.1
2014-Dec-15 03:29N 59°14' E 005°31'0 0.0
2014-Dec-15 02:29N 59°14' E 005°31'0 0.0
2014-Dec-15 01:29N 59°14' E 005°31'0 0.0
2014-Dec-15 00:32N 59°14' E 005°31'0 0.0
2014-Dec-14 23:29N 59°14' E 005°31'0 0.0
2014-Dec-14 21:23N 59°14' E 005°31'0 0.0
2014-Dec-14 17:26N 59°14' E 005°31'0 0.1
2014-Dec-14 16:32N 59°14' E 005°31'0 0.0
2014-Dec-14 15:11N 59°14' E 005°31'0 0.0
2014-Dec-14 14:26N 59°14' E 005°31'0 0.0
2014-Dec-14 13:26N 59°14' E 005°31'0 0.0
2014-Dec-14 11:23N 59°14' E 005°31'0 0.0
2014-Dec-14 10:32N 59°14' E 005°31'0 0.0
2014-Dec-14 08:23N 59°14' E 005°31'0 0.0
2014-Dec-14 06:17N 59°14' E 005°31'0 0.1
2014-Dec-14 05:05N 59°14' E 005°30'0 0.0
2014-Dec-14 03:26N 59°14' E 005°30'0 0.0
2014-Dec-14 01:09N 59°14' E 005°31'1 1.3
2014-Dec-14 00:25N 59°14' E 005°32'0 0.0
2014-Dec-13 23:31N 59°14' E 005°32'0 0.1
2014-Dec-13 22:13N 59°14' E 005°32'0 0.0
2014-Dec-13 21:31N 59°14' E 005°32'0 0.0
2014-Dec-13 20:31N 59°14' E 005°32'0 0.0
2014-Dec-13 19:31N 59°14' E 005°32'0 0.0
2014-Dec-13 18:31N 59°14' E 005°32'0 0.0
2014-Dec-13 17:31N 59°14' E 005°32'0 0.1
2014-Dec-13 16:31N 59°14' E 005°32'0 0.0
2014-Dec-13 14:04N 59°14' E 005°32'0 0.0
2014-Dec-13 13:04N 59°14' E 005°32'0 0.0
2014-Dec-13 12:31N 59°14' E 005°32'0 0.0
2014-Dec-13 11:31N 59°14' E 005°32'0 0.0
2014-Dec-13 10:25N 59°14' E 005°32'0 0.0
2014-Dec-13 09:31N 59°14' E 005°32'0 0.0
2014-Dec-13 08:31N 59°14' E 005°32'0 0.0
2014-Dec-13 07:22N 59°14' E 005°32'0 0.0
2014-Dec-13 05:31N 59°14' E 005°32'0 0.1
2014-Dec-13 04:31N 59°14' E 005°32'0 0.3
2014-Dec-13 03:33N 59°14' E 005°32'0 0.1
2014-Dec-13 02:24N 59°14' E 005°32'0 0.1
2014-Dec-13 01:33N 59°14' E 005°32'0 0.0
2014-Dec-13 00:12N 59°14' E 005°32'0 0.1
2014-Dec-12 23:33N 59°14' E 005°32'  

Dump ship's entire track history